sensor_id;sensor_type;location;lat;lon;timestamp;temperature;humidity
30280;DHT22;17097;50.916;5.344;2023-11-21T00:00:33;10.60;99.90
30280;DHT22;17097;50.916;5.344;2023-11-21T00:02:59;10.50;99.90
30280;DHT22;17097;50.916;5.344;2023-11-21T00:05:27;10.50;99.90
30280;DHT22;17097;50.916;5.344;2023-11-21T00:07:53;10.50;99.90
30280;DHT22;17097;50.916;5.344;2023-11-21T00:10:18;10.50;99.90
30280;DHT22;17097;50.916;5.344;2023-11-21T00:12:44;10.50;99.90
30280;DHT22;17097;50.916;5.344;2023-11-21T00:15:13;10.60;99.90
30280;DHT22;17097;50.916;5.344;2023-11-21T00:17:42;10.60;99.90
30280;DHT22;17097;50.916;5.344;2023-11-21T00:20:08;10.80;99.90
30280;DHT22;17097;50.916;5.344;2023-11-21T00:22:35;10.90;99.90
30280;DHT22;17097;50.916;5.344;2023-11-21T00:25:01;10.90;99.90
30280;DHT22;17097;50.916;5.344;2023-11-21T00:27:29;10.80;99.90
30280;DHT22;17097;50.916;5.344;2023-11-21T00:29:54;10.80;99.90
30280;DHT22;17097;50.916;5.344;2023-11-21T00:32:20;10.90;99.90
30280;DHT22;17097;50.916;5.344;2023-11-21T00:34:45;10.90;99.90
30280;DHT22;17097;50.916;5.344;2023-11-21T00:37:11;11.00;99.90
30280;DHT22;17097;50.916;5.344;2023-11-21T00:39:37;11.00;99.90
30280;DHT22;17097;50.916;5.344;2023-11-21T00:42:03;11.00;99.90
30280;DHT22;17097;50.916;5.344;2023-11-21T00:44:30;11.00;99.90
30280;DHT22;17097;50.916;5.344;2023-11-21T00:46:56;11.00;99.90
30280;DHT22;17097;50.916;5.344;2023-11-21T00:49:21;10.90;99.90
30280;DHT22;17097;50.916;5.344;2023-11-21T00:51:47;10.90;99.90
30280;DHT22;17097;50.916;5.344;2023-11-21T00:54:13;10.90;99.90
30280;DHT22;17097;50.916;5.344;2023-11-21T00:56:43;10.90;99.90
30280;DHT22;17097;50.916;5.344;2023-11-21T00:59:08;11.00;99.90
30280;DHT22;17097;50.916;5.344;2023-11-21T01:01:34;11.00;99.90
30280;DHT22;17097;50.916;5.344;2023-11-21T01:04:00;11.00;99.90
30280;DHT22;17097;50.916;5.344;2023-11-21T01:06:26;11.00;99.90
30280;DHT22;17097;50.916;5.344;2023-11-21T01:08:51;11.00;99.90
30280;DHT22;17097;50.916;5.344;2023-11-21T01:11:19;11.00;99.90
30280;DHT22;17097;50.916;5.344;2023-11-21T01:13:45;11.10;99.90
30280;DHT22;17097;50.916;5.344;2023-11-21T01:16:11;11.10;99.90
30280;DHT22;17097;50.916;5.344;2023-11-21T01:18:38;11.10;99.90
30280;DHT22;17097;50.916;5.344;2023-11-21T01:21:04;11.10;99.90
30280;DHT22;17097;50.916;5.344;2023-11-21T01:23:30;11.10;99.90
30280;DHT22;17097;50.916;5.344;2023-11-21T01:25:57;11.10;99.90
30280;DHT22;17097;50.916;5.344;2023-11-21T01:28:23;11.10;99.90
30280;DHT22;17097;50.916;5.344;2023-11-21T01:30:51;11.00;99.90
30280;DHT22;17097;50.916;5.344;2023-11-21T01:33:17;10.90;99.90
30280;DHT22;17097;50.916;5.344;2023-11-21T01:35:42;10.90;99.90
30280;DHT22;17097;50.916;5.344;2023-11-21T01:38:08;10.90;99.90
30280;DHT22;17097;50.916;5.344;2023-11-21T01:40:35;10.90;99.90
30280;DHT22;17097;50.916;5.344;2023-11-21T01:43:00;11.00;99.90
30280;DHT22;17097;50.916;5.344;2023-11-21T01:45:28;11.00;99.90
30280;DHT22;17097;50.916;5.344;2023-11-21T01:47:58;11.10;99.90
30280;DHT22;17097;50.916;5.344;2023-11-21T01:50:25;11.10;99.90
30280;DHT22;17097;50.916;5.344;2023-11-21T01:52:51;11.10;99.90
30280;DHT22;17097;50.916;5.344;2023-11-21T01:55:17;11.00;99.90
30280;DHT22;17097;50.916;5.344;2023-11-21T01:57:44;11.10;99.90
30280;DHT22;17097;50.916;5.344;2023-11-21T02:00:12;11.10;99.90
30280;DHT22;17097;50.916;5.344;2023-11-21T02:02:45;11.10;99.90
30280;DHT22;17097;50.916;5.344;2023-11-21T02:05:20;11.00;99.90
30280;DHT22;17097;50.916;5.344;2023-11-21T02:07:47;11.00;99.90
30280;DHT22;17097;50.916;5.344;2023-11-21T02:10:20;11.00;99.90
30280;DHT22;17097;50.916;5.344;2023-11-21T02:12:49;11.00;99.90
30280;DHT22;17097;50.916;5.344;2023-11-21T02:15:18;11.10;99.90
30280;DHT22;17097;50.916;5.344;2023-11-21T02:17:47;11.10;99.90
30280;DHT22;17097;50.916;5.344;2023-11-21T02:20:19;11.10;99.90
30280;DHT22;17097;50.916;5.344;2023-11-21T02:22:55;11.10;99.90
30280;DHT22;17097;50.916;5.344;2023-11-21T02:25:27;11.10;99.90
30280;DHT22;17097;50.916;5.344;2023-11-21T02:27:54;11.10;99.90
30280;DHT22;17097;50.916;5.344;2023-11-21T02:30:23;11.10;99.90
30280;DHT22;17097;50.916;5.344;2023-11-21T02:32:50;11.10;99.90
30280;DHT22;17097;50.916;5.344;2023-11-21T02:35:21;11.10;99.90
30280;DHT22;17097;50.916;5.344;2023-11-21T02:37:47;11.00;99.90
30280;DHT22;17097;50.916;5.344;2023-11-21T02:40:13;11.10;99.90
30280;DHT22;17097;50.916;5.344;2023-11-21T02:42:43;11.10;99.90
30280;DHT22;17097;50.916;5.344;2023-11-21T02:45:09;11.20;99.90
30280;DHT22;17097;50.916;5.344;2023-11-21T02:47:38;11.10;99.90
30280;DHT22;17097;50.916;5.344;2023-11-21T02:50:04;11.10;99.90
30280;DHT22;17097;50.916;5.344;2023-11-21T02:52:31;11.00;99.90
30280;DHT22;17097;50.916;5.344;2023-11-21T02:54:58;11.10;99.90
30280;DHT22;17097;50.916;5.344;2023-11-21T02:57:24;11.10;99.90
30280;DHT22;17097;50.916;5.344;2023-11-21T02:59:50;11.10;99.90
30280;DHT22;17097;50.916;5.344;2023-11-21T03:02:18;11.10;99.90
30280;DHT22;17097;50.916;5.344;2023-11-21T03:04:43;11.20;99.90
30280;DHT22;17097;50.916;5.344;2023-11-21T03:07:11;11.00;99.90
30280;DHT22;17097;50.916;5.344;2023-11-21T03:09:36;11.00;99.90
30280;DHT22;17097;50.916;5.344;2023-11-21T03:12:02;11.00;99.90
30280;DHT22;17097;50.916;5.344;2023-11-21T03:14:28;11.00;99.90
30280;DHT22;17097;50.916;5.344;2023-11-21T03:16:54;11.00;99.90
30280;DHT22;17097;50.916;5.344;2023-11-21T03:19:19;11.10;99.90
30280;DHT22;17097;50.916;5.344;2023-11-21T03:21:45;11.20;99.90
30280;DHT22;17097;50.916;5.344;2023-11-21T03:24:10;11.20;99.90
30280;DHT22;17097;50.916;5.344;2023-11-21T03:26:36;11.10;99.90
30280;DHT22;17097;50.916;5.344;2023-11-21T03:29:03;11.10;99.90
30280;DHT22;17097;50.916;5.344;2023-11-21T03:31:30;11.10;99.90
30280;DHT22;17097;50.916;5.344;2023-11-21T03:33:55;11.00;99.90
30280;DHT22;17097;50.916;5.344;2023-11-21T03:36:21;11.00;99.90
30280;DHT22;17097;50.916;5.344;2023-11-21T03:38:48;11.00;99.90
30280;DHT22;17097;50.916;5.344;2023-11-21T03:41:14;10.90;99.90
30280;DHT22;17097;50.916;5.344;2023-11-21T03:43:40;11.00;99.90
30280;DHT22;17097;50.916;5.344;2023-11-21T03:46:08;10.90;99.90
30280;DHT22;17097;50.916;5.344;2023-11-21T03:48:35;11.00;99.90
30280;DHT22;17097;50.916;5.344;2023-11-21T03:51:01;11.10;99.90
30280;DHT22;17097;50.916;5.344;2023-11-21T03:53:27;11.10;99.90
30280;DHT22;17097;50.916;5.344;2023-11-21T03:55:54;11.10;99.90
30280;DHT22;17097;50.916;5.344;2023-11-21T03:58:23;11.20;99.90
30280;DHT22;17097;50.916;5.344;2023-11-21T04:00:48;11.10;99.90
30280;DHT22;17097;50.916;5.344;2023-11-21T04:03:17;11.00;99.90
30280;DHT22;17097;50.916;5.344;2023-11-21T04:05:42;11.10;99.90
30280;DHT22;17097;50.916;5.344;2023-11-21T04:08:11;11.00;99.90
30280;DHT22;17097;50.916;5.344;2023-11-21T04:10:36;10.80;99.90
30280;DHT22;17097;50.916;5.344;2023-11-21T04:13:05;10.90;99.90
30280;DHT22;17097;50.916;5.344;2023-11-21T04:15:30;10.80;99.90
30280;DHT22;17097;50.916;5.344;2023-11-21T04:17:56;10.90;99.90
30280;DHT22;17097;50.916;5.344;2023-11-21T04:20:22;10.80;99.90
30280;DHT22;17097;50.916;5.344;2023-11-21T04:22:49;10.90;99.90
30280;DHT22;17097;50.916;5.344;2023-11-21T04:25:16;11.00;99.90
30280;DHT22;17097;50.916;5.344;2023-11-21T04:27:45;10.90;99.90
30280;DHT22;17097;50.916;5.344;2023-11-21T04:30:12;10.90;99.90
30280;DHT22;17097;50.916;5.344;2023-11-21T04:32:38;10.80;99.90
30280;DHT22;17097;50.916;5.344;2023-11-21T04:35:05;10.80;99.90
30280;DHT22;17097;50.916;5.344;2023-11-21T04:37:31;10.90;99.90
30280;DHT22;17097;50.916;5.344;2023-11-21T04:39:56;10.80;99.90
30280;DHT22;17097;50.916;5.344;2023-11-21T04:42:22;10.90;99.90
30280;DHT22;17097;50.916;5.344;2023-11-21T04:44:49;10.90;99.90
30280;DHT22;17097;50.916;5.344;2023-11-21T04:47:14;10.80;99.90
30280;DHT22;17097;50.916;5.344;2023-11-21T04:49:43;10.80;99.90
30280;DHT22;17097;50.916;5.344;2023-11-21T04:52:09;10.80;99.90
30280;DHT22;17097;50.916;5.344;2023-11-21T04:54:35;10.90;99.90
30280;DHT22;17097;50.916;5.344;2023-11-21T04:57:07;10.70;99.90
30280;DHT22;17097;50.916;5.344;2023-11-21T04:59:33;10.70;99.90
30280;DHT22;17097;50.916;5.344;2023-11-21T05:01:59;10.90;99.90
30280;DHT22;17097;50.916;5.344;2023-11-21T05:04:27;10.80;99.90
30280;DHT22;17097;50.916;5.344;2023-11-21T05:06:53;10.80;99.90
30280;DHT22;17097;50.916;5.344;2023-11-21T05:09:22;10.90;99.90
30280;DHT22;17097;50.916;5.344;2023-11-21T05:11:47;10.80;99.90
30280;DHT22;17097;50.916;5.344;2023-11-21T05:14:13;10.70;99.90
30280;DHT22;17097;50.916;5.344;2023-11-21T05:16:39;10.60;99.90
30280;DHT22;17097;50.916;5.344;2023-11-21T05:19:07;10.50;99.90
30280;DHT22;17097;50.916;5.344;2023-11-21T05:21:34;10.60;99.90
30280;DHT22;17097;50.916;5.344;2023-11-21T05:24:01;10.70;99.90
30280;DHT22;17097;50.916;5.344;2023-11-21T05:26:29;10.70;99.90
30280;DHT22;17097;50.916;5.344;2023-11-21T05:28:55;10.70;99.90
30280;DHT22;17097;50.916;5.344;2023-11-21T05:31:20;10.70;99.90
30280;DHT22;17097;50.916;5.344;2023-11-21T05:33:47;10.70;99.90
30280;DHT22;17097;50.916;5.344;2023-11-21T05:36:12;10.50;99.90
30280;DHT22;17097;50.916;5.344;2023-11-21T05:38:38;10.60;99.90
30280;DHT22;17097;50.916;5.344;2023-11-21T05:41:07;10.60;99.90
30280;DHT22;17097;50.916;5.344;2023-11-21T05:43:35;10.60;99.90
30280;DHT22;17097;50.916;5.344;2023-11-21T05:46:01;10.60;99.90
30280;DHT22;17097;50.916;5.344;2023-11-21T05:48:27;10.70;99.90
30280;DHT22;17097;50.916;5.344;2023-11-21T05:50:53;10.70;99.90
30280;DHT22;17097;50.916;5.344;2023-11-21T05:53:18;10.70;99.90
30280;DHT22;17097;50.916;5.344;2023-11-21T05:55:44;10.70;99.90
30280;DHT22;17097;50.916;5.344;2023-11-21T05:58:09;10.60;99.90
30280;DHT22;17097;50.916;5.344;2023-11-21T06:00:37;10.60;99.90
30280;DHT22;17097;50.916;5.344;2023-11-21T06:03:02;10.70;99.90
30280;DHT22;17097;50.916;5.344;2023-11-21T06:05:29;10.60;99.90
30280;DHT22;17097;50.916;5.344;2023-11-21T06:07:57;10.70;99.90
30280;DHT22;17097;50.916;5.344;2023-11-21T06:10:25;10.80;99.90
30280;DHT22;17097;50.916;5.344;2023-11-21T06:12:51;10.80;99.90
30280;DHT22;17097;50.916;5.344;2023-11-21T06:15:19;10.80;99.90
30280;DHT22;17097;50.916;5.344;2023-11-21T06:17:49;11.00;99.90
30280;DHT22;17097;50.916;5.344;2023-11-21T06:20:17;10.90;99.90
30280;DHT22;17097;50.916;5.344;2023-11-21T06:22:45;10.90;99.90
30280;DHT22;17097;50.916;5.344;2023-11-21T06:25:13;11.00;99.90
30280;DHT22;17097;50.916;5.344;2023-11-21T06:27:43;11.00;99.90
30280;DHT22;17097;50.916;5.344;2023-11-21T06:30:14;10.90;99.90
30280;DHT22;17097;50.916;5.344;2023-11-21T06:32:41;10.90;99.90
30280;DHT22;17097;50.916;5.344;2023-11-21T06:35:08;10.90;99.90
30280;DHT22;17097;50.916;5.344;2023-11-21T06:37:37;10.90;99.90
30280;DHT22;17097;50.916;5.344;2023-11-21T06:40:03;11.00;99.90
30280;DHT22;17097;50.916;5.344;2023-11-21T06:42:32;11.00;99.90
30280;DHT22;17097;50.916;5.344;2023-11-21T06:44:59;11.20;99.90
30280;DHT22;17097;50.916;5.344;2023-11-21T06:47:29;11.10;99.90
30280;DHT22;17097;50.916;5.344;2023-11-21T06:49:56;11.00;99.90
30280;DHT22;17097;50.916;5.344;2023-11-21T06:52:22;11.00;99.90
30280;DHT22;17097;50.916;5.344;2023-11-21T06:54:48;11.00;99.90
30280;DHT22;17097;50.916;5.344;2023-11-21T06:57:16;11.10;99.90
30280;DHT22;17097;50.916;5.344;2023-11-21T06:59:42;11.10;99.90
30280;DHT22;17097;50.916;5.344;2023-11-21T07:02:08;11.00;99.90
30280;DHT22;17097;50.916;5.344;2023-11-21T07:04:35;11.00;99.90
30280;DHT22;17097;50.916;5.344;2023-11-21T07:07:02;11.00;99.90
30280;DHT22;17097;50.916;5.344;2023-11-21T07:09:28;11.10;99.90
30280;DHT22;17097;50.916;5.344;2023-11-21T07:11:54;11.10;99.90
30280;DHT22;17097;50.916;5.344;2023-11-21T07:14:21;11.20;99.90
30280;DHT22;17097;50.916;5.344;2023-11-21T07:16:47;11.20;99.90
30280;DHT22;17097;50.916;5.344;2023-11-21T07:19:13;11.20;99.90
30280;DHT22;17097;50.916;5.344;2023-11-21T07:21:40;11.20;99.90
30280;DHT22;17097;50.916;5.344;2023-11-21T07:24:06;11.10;99.90
30280;DHT22;17097;50.916;5.344;2023-11-21T07:26:33;11.10;99.90
30280;DHT22;17097;50.916;5.344;2023-11-21T07:29:02;11.20;99.90
30280;DHT22;17097;50.916;5.344;2023-11-21T07:31:31;11.30;99.90
30280;DHT22;17097;50.916;5.344;2023-11-21T07:33:59;11.30;99.90
30280;DHT22;17097;50.916;5.344;2023-11-21T07:36:25;11.20;99.90
30280;DHT22;17097;50.916;5.344;2023-11-21T07:38:51;11.30;99.90
30280;DHT22;17097;50.916;5.344;2023-11-21T07:41:20;11.30;99.90
30280;DHT22;17097;50.916;5.344;2023-11-21T07:43:46;11.40;99.90
30280;DHT22;17097;50.916;5.344;2023-11-21T07:46:12;11.40;99.90
30280;DHT22;17097;50.916;5.344;2023-11-21T07:48:39;11.40;99.90
30280;DHT22;17097;50.916;5.344;2023-11-21T07:51:05;11.40;99.90
30280;DHT22;17097;50.916;5.344;2023-11-21T07:53:34;11.40;99.90
30280;DHT22;17097;50.916;5.344;2023-11-21T07:58:30;11.50;99.90
30280;DHT22;17097;50.916;5.344;2023-11-21T08:00:56;11.50;99.90
30280;DHT22;17097;50.916;5.344;2023-11-21T08:03:22;11.50;99.90
30280;DHT22;17097;50.916;5.344;2023-11-21T08:05:48;11.40;99.90
30280;DHT22;17097;50.916;5.344;2023-11-21T08:08:14;11.50;99.90
30280;DHT22;17097;50.916;5.344;2023-11-21T08:10:43;11.60;99.90
30280;DHT22;17097;50.916;5.344;2023-11-21T08:13:09;11.60;99.90
30280;DHT22;17097;50.916;5.344;2023-11-21T08:15:42;11.60;99.90
30280;DHT22;17097;50.916;5.344;2023-11-21T08:18:11;11.50;99.90
30280;DHT22;17097;50.916;5.344;2023-11-21T08:20:38;11.50;99.90
30280;DHT22;17097;50.916;5.344;2023-11-21T08:23:07;11.50;99.90
30280;DHT22;17097;50.916;5.344;2023-11-21T08:25:33;11.40;99.90
30280;DHT22;17097;50.916;5.344;2023-11-21T08:28:00;11.40;99.90
30280;DHT22;17097;50.916;5.344;2023-11-21T08:30:31;11.40;99.90
30280;DHT22;17097;50.916;5.344;2023-11-21T08:32:57;11.50;99.90
30280;DHT22;17097;50.916;5.344;2023-11-21T08:35:26;11.50;99.90
30280;DHT22;17097;50.916;5.344;2023-11-21T08:37:52;11.50;99.90
30280;DHT22;17097;50.916;5.344;2023-11-21T08:40:20;11.50;99.90
30280;DHT22;17097;50.916;5.344;2023-11-21T08:42:47;11.50;99.90
30280;DHT22;17097;50.916;5.344;2023-11-21T08:45:14;11.60;99.90
30280;DHT22;17097;50.916;5.344;2023-11-21T08:47:40;11.50;99.90
30280;DHT22;17097;50.916;5.344;2023-11-21T08:50:07;11.60;99.90
30280;DHT22;17097;50.916;5.344;2023-11-21T08:52:34;11.70;99.90
30280;DHT22;17097;50.916;5.344;2023-11-21T08:55:00;11.70;99.90
30280;DHT22;17097;50.916;5.344;2023-11-21T08:57:34;11.70;99.90
30280;DHT22;17097;50.916;5.344;2023-11-21T09:00:01;11.70;99.90
30280;DHT22;17097;50.916;5.344;2023-11-21T09:02:28;11.90;99.90
30280;DHT22;17097;50.916;5.344;2023-11-21T09:04:54;11.80;99.90
30280;DHT22;17097;50.916;5.344;2023-11-21T09:07:20;11.80;99.90
30280;DHT22;17097;50.916;5.344;2023-11-21T09:09:50;11.90;99.90
30280;DHT22;17097;50.916;5.344;2023-11-21T09:12:16;11.80;99.90
30280;DHT22;17097;50.916;5.344;2023-11-21T09:14:45;11.80;99.90
30280;DHT22;17097;50.916;5.344;2023-11-21T09:17:11;11.90;99.90
30280;DHT22;17097;50.916;5.344;2023-11-21T09:19:37;11.80;99.90
30280;DHT22;17097;50.916;5.344;2023-11-21T09:22:04;11.80;99.90
30280;DHT22;17097;50.916;5.344;2023-11-21T09:24:31;11.90;99.90
30280;DHT22;17097;50.916;5.344;2023-11-21T09:26:56;11.90;99.90
30280;DHT22;17097;50.916;5.344;2023-11-21T09:29:22;12.00;99.90
30280;DHT22;17097;50.916;5.344;2023-11-21T09:31:48;12.10;99.90
30280;DHT22;17097;50.916;5.344;2023-11-21T09:34:16;12.10;99.90
30280;DHT22;17097;50.916;5.344;2023-11-21T09:36:45;12.00;99.90
30280;DHT22;17097;50.916;5.344;2023-11-21T09:39:13;12.00;99.90
30280;DHT22;17097;50.916;5.344;2023-11-21T09:44:18;12.10;99.90
30280;DHT22;17097;50.916;5.344;2023-11-21T09:46:47;12.10;99.90
30280;DHT22;17097;50.916;5.344;2023-11-21T09:49:13;12.20;99.90
30280;DHT22;17097;50.916;5.344;2023-11-21T09:51:45;12.30;99.90
30280;DHT22;17097;50.916;5.344;2023-11-21T09:54:13;12.30;99.90
30280;DHT22;17097;50.916;5.344;2023-11-21T09:56:41;12.20;99.90
30280;DHT22;17097;50.916;5.344;2023-11-21T09:59:13;12.30;99.90
30280;DHT22;17097;50.916;5.344;2023-11-21T10:01:40;12.40;99.90
30280;DHT22;17097;50.916;5.344;2023-11-21T10:04:06;12.50;99.90
30280;DHT22;17097;50.916;5.344;2023-11-21T10:06:41;12.50;99.90
30280;DHT22;17097;50.916;5.344;2023-11-21T10:09:10;12.50;99.90
30280;DHT22;17097;50.916;5.344;2023-11-21T10:11:41;12.60;99.90
30280;DHT22;17097;50.916;5.344;2023-11-21T10:14:11;12.60;99.90
30280;DHT22;17097;50.916;5.344;2023-11-21T10:16:38;12.50;99.90
30280;DHT22;17097;50.916;5.344;2023-11-21T10:19:05;12.60;99.90
30280;DHT22;17097;50.916;5.344;2023-11-21T10:21:35;12.70;99.90
30280;DHT22;17097;50.916;5.344;2023-11-21T10:24:02;12.70;99.90
30280;DHT22;17097;50.916;5.344;2023-11-21T10:26:28;12.80;99.90
30280;DHT22;17097;50.916;5.344;2023-11-21T10:29:01;12.80;99.90
30280;DHT22;17097;50.916;5.344;2023-11-21T10:31:32;12.90;99.90
30280;DHT22;17097;50.916;5.344;2023-11-21T10:34:13;12.90;99.90
30280;DHT22;17097;50.916;5.344;2023-11-21T10:36:40;13.00;99.90
30280;DHT22;17097;50.916;5.344;2023-11-21T10:39:08;13.00;99.90
30280;DHT22;17097;50.916;5.344;2023-11-21T10:41:35;12.90;99.90
30280;DHT22;17097;50.916;5.344;2023-11-21T10:44:02;12.80;99.90
30280;DHT22;17097;50.916;5.344;2023-11-21T10:46:33;12.80;99.90
30280;DHT22;17097;50.916;5.344;2023-11-21T10:48:59;12.80;99.90
30280;DHT22;17097;50.916;5.344;2023-11-21T10:51:25;12.80;99.90
30280;DHT22;17097;50.916;5.344;2023-11-21T10:53:54;13.00;99.90
30280;DHT22;17097;50.916;5.344;2023-11-21T10:56:23;13.00;99.90
30280;DHT22;17097;50.916;5.344;2023-11-21T10:58:49;12.90;99.90
30280;DHT22;17097;50.916;5.344;2023-11-21T11:01:19;12.70;99.90
30280;DHT22;17097;50.916;5.344;2023-11-21T11:03:50;12.80;99.90
30280;DHT22;17097;50.916;5.344;2023-11-21T11:06:16;12.70;99.90
30280;DHT22;17097;50.916;5.344;2023-11-21T11:08:42;12.80;99.90
30280;DHT22;17097;50.916;5.344;2023-11-21T11:11:08;12.80;99.90
30280;DHT22;17097;50.916;5.344;2023-11-21T11:13:35;12.80;99.90
30280;DHT22;17097;50.916;5.344;2023-11-21T11:16:03;12.80;99.90
30280;DHT22;17097;50.916;5.344;2023-11-21T11:18:33;12.80;99.90
30280;DHT22;17097;50.916;5.344;2023-11-21T11:21:15;12.70;99.90
30280;DHT22;17097;50.916;5.344;2023-11-21T11:26:46;13.40;99.90
30280;DHT22;17097;50.916;5.344;2023-11-21T11:29:39;13.40;99.90
30280;DHT22;17097;50.916;5.344;2023-11-21T11:32:24;13.20;99.90
30280;DHT22;17097;50.916;5.344;2023-11-21T11:35:01;13.00;99.90
30280;DHT22;17097;50.916;5.344;2023-11-21T11:37:31;12.90;99.90
30280;DHT22;17097;50.916;5.344;2023-11-21T11:39:56;12.90;99.90
30280;DHT22;17097;50.916;5.344;2023-11-21T11:42:22;12.90;99.90
30280;DHT22;17097;50.916;5.344;2023-11-21T11:44:50;12.80;99.90
30280;DHT22;17097;50.916;5.344;2023-11-21T11:47:26;12.80;99.90
30280;DHT22;17097;50.916;5.344;2023-11-21T11:50:04;12.90;99.90
30280;DHT22;17097;50.916;5.344;2023-11-21T11:55:02;13.00;99.90
30280;DHT22;17097;50.916;5.344;2023-11-21T11:57:30;12.90;99.90
30280;DHT22;17097;50.916;5.344;2023-11-21T12:03:10;12.90;99.90
30280;DHT22;17097;50.916;5.344;2023-11-21T12:05:36;12.90;99.90
30280;DHT22;17097;50.916;5.344;2023-11-21T12:08:06;12.90;99.90
30280;DHT22;17097;50.916;5.344;2023-11-21T12:10:35;12.70;99.90
30280;DHT22;17097;50.916;5.344;2023-11-21T12:13:11;12.70;99.90
30280;DHT22;17097;50.916;5.344;2023-11-21T12:15:41;12.80;99.90
30280;DHT22;17097;50.916;5.344;2023-11-21T12:18:07;12.90;99.90
30280;DHT22;17097;50.916;5.344;2023-11-21T12:20:33;12.90;99.90
30280;DHT22;17097;50.916;5.344;2023-11-21T12:23:04;12.80;99.90
30280;DHT22;17097;50.916;5.344;2023-11-21T12:25:31;12.70;99.90
30280;DHT22;17097;50.916;5.344;2023-11-21T12:28:01;12.90;99.90
30280;DHT22;17097;50.916;5.344;2023-11-21T12:30:31;13.00;99.90
30280;DHT22;17097;50.916;5.344;2023-11-21T12:33:00;12.90;99.90
30280;DHT22;17097;50.916;5.344;2023-11-21T12:35:27;12.90;99.90
30280;DHT22;17097;50.916;5.344;2023-11-21T12:37:59;13.00;99.90
30280;DHT22;17097;50.916;5.344;2023-11-21T12:40:26;13.00;99.90
30280;DHT22;17097;50.916;5.344;2023-11-21T12:42:53;13.10;99.90
30280;DHT22;17097;50.916;5.344;2023-11-21T12:45:21;13.10;99.90
30280;DHT22;17097;50.916;5.344;2023-11-21T12:47:51;13.10;99.90
30280;DHT22;17097;50.916;5.344;2023-11-21T12:50:24;13.20;99.90
30280;DHT22;17097;50.916;5.344;2023-11-21T12:52:57;13.20;99.90
30280;DHT22;17097;50.916;5.344;2023-11-21T12:55:23;13.30;99.90
30280;DHT22;17097;50.916;5.344;2023-11-21T12:57:51;13.10;99.90
30280;DHT22;17097;50.916;5.344;2023-11-21T13:00:20;13.20;99.90
30280;DHT22;17097;50.916;5.344;2023-11-21T13:02:56;13.20;99.90
30280;DHT22;17097;50.916;5.344;2023-11-21T13:05:29;13.10;99.90
30280;DHT22;17097;50.916;5.344;2023-11-21T13:08:01;13.20;99.90
30280;DHT22;17097;50.916;5.344;2023-11-21T13:10:29;13.40;99.90
30280;DHT22;17097;50.916;5.344;2023-11-21T13:13:00;13.30;99.90
30280;DHT22;17097;50.916;5.344;2023-11-21T13:15:29;13.30;99.90
30280;DHT22;17097;50.916;5.344;2023-11-21T13:17:57;13.30;99.90
30280;DHT22;17097;50.916;5.344;2023-11-21T13:20:24;13.50;99.90
30280;DHT22;17097;50.916;5.344;2023-11-21T13:22:54;13.50;99.90
30280;DHT22;17097;50.916;5.344;2023-11-21T13:25:23;13.50;99.90
30280;DHT22;17097;50.916;5.344;2023-11-21T13:27:49;13.50;99.90
30280;DHT22;17097;50.916;5.344;2023-11-21T13:30:16;13.60;99.90
30280;DHT22;17097;50.916;5.344;2023-11-21T13:32:46;13.70;99.90
30280;DHT22;17097;50.916;5.344;2023-11-21T13:35:12;13.70;99.90
30280;DHT22;17097;50.916;5.344;2023-11-21T13:37:51;13.80;99.90
30280;DHT22;17097;50.916;5.344;2023-11-21T13:40:22;14.00;99.90
30280;DHT22;17097;50.916;5.344;2023-11-21T13:42:52;13.80;99.90
30280;DHT22;17097;50.916;5.344;2023-11-21T13:45:20;13.70;99.90
30280;DHT22;17097;50.916;5.344;2023-11-21T13:47:47;13.60;99.90
30280;DHT22;17097;50.916;5.344;2023-11-21T13:50:15;13.70;99.90
30280;DHT22;17097;50.916;5.344;2023-11-21T13:52:48;13.50;99.90
30280;DHT22;17097;50.916;5.344;2023-11-21T13:55:14;13.50;99.90
30280;DHT22;17097;50.916;5.344;2023-11-21T13:57:42;13.50;99.90
30280;DHT22;17097;50.916;5.344;2023-11-21T14:00:15;13.60;99.90
30280;DHT22;17097;50.916;5.344;2023-11-21T14:03:00;13.70;99.90
30280;DHT22;17097;50.916;5.344;2023-11-21T14:05:29;13.70;99.90
30280;DHT22;17097;50.916;5.344;2023-11-21T14:07:57;13.80;99.90
30280;DHT22;17097;50.916;5.344;2023-11-21T14:10:29;13.80;99.90
30280;DHT22;17097;50.916;5.344;2023-11-21T14:13:05;13.60;99.90
30280;DHT22;17097;50.916;5.344;2023-11-21T14:15:32;13.40;99.90
30280;DHT22;17097;50.916;5.344;2023-11-21T14:18:02;13.40;99.90
30280;DHT22;17097;50.916;5.344;2023-11-21T14:20:33;13.50;99.90
30280;DHT22;17097;50.916;5.344;2023-11-21T14:23:01;13.60;99.90
30280;DHT22;17097;50.916;5.344;2023-11-21T14:25:27;13.60;99.90
30280;DHT22;17097;50.916;5.344;2023-11-21T14:27:53;13.70;99.90
30280;DHT22;17097;50.916;5.344;2023-11-21T14:30:19;13.70;99.90
30280;DHT22;17097;50.916;5.344;2023-11-21T14:32:48;13.70;99.90
30280;DHT22;17097;50.916;5.344;2023-11-21T14:35:15;13.60;99.90
30280;DHT22;17097;50.916;5.344;2023-11-21T14:37:42;13.40;99.90
30280;DHT22;17097;50.916;5.344;2023-11-21T14:40:08;13.40;99.90
30280;DHT22;17097;50.916;5.344;2023-11-21T14:42:34;13.30;99.90
30280;DHT22;17097;50.916;5.344;2023-11-21T14:45:03;13.50;99.90
30280;DHT22;17097;50.916;5.344;2023-11-21T14:47:32;13.60;99.90
30280;DHT22;17097;50.916;5.344;2023-11-21T14:50:02;13.80;99.90
30280;DHT22;17097;50.916;5.344;2023-11-21T14:52:50;13.70;99.90
30280;DHT22;17097;50.916;5.344;2023-11-21T14:55:25;13.60;99.90
30280;DHT22;17097;50.916;5.344;2023-11-21T14:58:19;13.60;99.90
30280;DHT22;17097;50.916;5.344;2023-11-21T15:00:59;13.60;99.90
30280;DHT22;17097;50.916;5.344;2023-11-21T15:03:28;13.70;99.90
30280;DHT22;17097;50.916;5.344;2023-11-21T15:05:59;13.60;99.90
30280;DHT22;17097;50.916;5.344;2023-11-21T15:08:35;13.70;99.90
30280;DHT22;17097;50.916;5.344;2023-11-21T15:11:02;13.60;99.90
30280;DHT22;17097;50.916;5.344;2023-11-21T15:13:32;13.50;99.90
30280;DHT22;17097;50.916;5.344;2023-11-21T15:15:58;13.60;99.90
30280;DHT22;17097;50.916;5.344;2023-11-21T15:18:33;13.60;99.90
30280;DHT22;17097;50.916;5.344;2023-11-21T15:20:59;13.50;99.90
30280;DHT22;17097;50.916;5.344;2023-11-21T15:23:25;13.60;99.90
30280;DHT22;17097;50.916;5.344;2023-11-21T15:25:53;13.70;99.90
30280;DHT22;17097;50.916;5.344;2023-11-21T15:28:19;13.70;99.90
30280;DHT22;17097;50.916;5.344;2023-11-21T15:30:45;13.70;99.90
30280;DHT22;17097;50.916;5.344;2023-11-21T15:33:13;13.70;99.90
30280;DHT22;17097;50.916;5.344;2023-11-21T15:35:39;13.60;99.90
30280;DHT22;17097;50.916;5.344;2023-11-21T15:38:07;13.60;99.90
30280;DHT22;17097;50.916;5.344;2023-11-21T15:40:34;13.50;99.90
30280;DHT22;17097;50.916;5.344;2023-11-21T15:42:59;13.50;99.90
30280;DHT22;17097;50.916;5.344;2023-11-21T15:45:25;13.30;99.90
30280;DHT22;17097;50.916;5.344;2023-11-21T15:47:52;13.10;99.90